Sea Lion Island, Falkland Islands

11:41 AM FKST on September 02, 2014 (GMT -0300)
Mount Pleasant | Change Station
CLOSE
Current Station
Airport
Location: Mount Pleasant,
Elevation: 243 ft
Nearby Weather Stations

Elev 243 ft 51.82 °S, 58.45 °W | Updated 51 minutes ago

Mostly Cloudy
Mostly Cloudy
43 °F
Feels Like 34 °F
N
18
Wind Variable Wind from NNE

Today
High -- | Low -- °F
--% Chance of Precip.
Yesterday
High -- | Low -- °F
Precip. -- in
7:31 AM 6:21 PM
First Quarter, 52% visible
Pressure 30.09 in
Visibility 6.2 miles
Clouds Few 200 ft
Mostly Cloudy 600 ft
Windchill 34 °F
Dew Point 41 °F
Humidity 93%
Rainfall 0.00 in
Snow Depth Not available.
UV 1 out of 12
Pollen Not available.
Air Quality Not available.
Flu Activity Not available.
METAR EGYP 021350Z 02016KT 9999 FEW002 BKN006 06/05 Q1019 YLO1 TEMPO 2000 RADZ BKN004 YL02

More Conditions Fewer Conditions

Pressure 30.09 in
Visibility 6.2 miles
Clouds Few 200 ft
Mostly Cloudy 600 ft
Windchill 34 °F
Dew Point 41 °F
Humidity 93%
Rainfall 0.00 in
Snow Depth Not available.
UV 1 out of 12
Pollen Not available.
Air Quality Not available.
Flu Activity Not available.
METAR EGYP 021350Z 02016KT 9999 FEW002 BKN006 06/05 Q1019 YLO1 TEMPO 2000 RADZ BKN004 YL02

More Conditions Fewer Conditions

10-Day Weather Forecast

Almanac

Astronomy

Sep. 02, 2014 Rise Set
Actual Time 7:31 AM FKST 6:21 PM FKST
Civil Twilight 6:57 AM FKST 6:55 PM FKST
Nautical Twilight 6:18 AM FKST 7:34 PM FKST
Astronomical Twilight 5:38 AM FKST 8:14 PM FKST
Moon 11:12 AM FKST 2:10 AM FKST
Length of Visible Light 11h 57m
Length of Day
10h 49m
Tomorrow will be 3m 55s longer.
First Quarter, 52% of the Moon is Illuminated
Today
First Quarter
Sep 8
Full
Sep 15
Last Quarter
Sep 24
New
Oct 1
First Quarter

Yesterday's Extremes

Country Highs Country Lows

Community

WunderPhotos

Upload Photos

1,749,682 photos uploaded!

WunderBlogs® & News

Nearby

Snow Depth

Not available.

Earthquake Activity

City Distance Mag. Time & Date
No recent earthquake activity has been reported nearby.
Minimum magnitude displayed is 2.5.

Coastal Water Temperatures

Place Temperature
No Stations Reporting

Nearby Weather Stations